Columbus, Ohio
Traffic Map
Current Weather Conditions
Columbus, Ohio
Broken Clouds Haze
Broken Clouds
33°
Feels Like: 33°
Wind Chill: 33° Ceiling: 25000
Heat Index: 33° Visibility: 6mi
Dew Point: 21° Wind: 3mph
Humidity: 61% Direction: ° ()
Pressure: 30.29in Gusts: 0mph
Raw Report DataKCMH 211651Z VRB03KT 6SM HZ FEW025 BKN250 01/M06 A3029 RMK AO2 SLP264 T00061061
Traffic Incident Summary
Active as of:
Severity:
Category:
InformationThere was an issue retrieving the traffic information for this location. Please try a different location or try again shortly.
Advertisements
Track Severe Weather on mobile